createdAt,value
2023-09-17T00:00:39.575Z,89.12
2023-09-17T00:01:39.649Z,88.82
2023-09-17T00:02:39.556Z,88.72
2023-09-17T00:03:39.703Z,88.92
2023-09-17T00:04:39.578Z,88.92
2023-09-17T00:05:39.527Z,88.92
2023-09-17T00:06:39.528Z,89.03
2023-09-17T00:07:39.639Z,89.12
2023-09-17T00:08:39.529Z,89.06
2023-09-17T00:09:39.503Z,89.26
2023-09-17T00:10:39.498Z,89.17
2023-09-17T00:11:39.475Z,89.37
2023-09-17T00:12:39.445Z,89.47
2023-09-17T00:13:39.609Z,89.47
2023-09-17T00:14:39.497Z,89.77
2023-09-17T00:15:39.440Z,89.67
2023-09-17T00:16:39.520Z,89.57
2023-09-17T00:17:39.442Z,89.67
2023-09-17T00:18:39.395Z,89.37
2023-09-17T00:19:39.456Z,89.67
2023-09-17T00:20:39.371Z,89.67
2023-09-17T00:21:39.418Z,89.47
2023-09-17T00:22:39.383Z,89.37
2023-09-17T00:23:39.372Z,89.26
2023-09-17T00:24:39.335Z,89.37
2023-09-17T00:25:39.467Z,89.37
2023-09-17T00:26:39.302Z,89.26
2023-09-17T00:27:39.301Z,89.47
2023-09-17T00:28:39.330Z,89.57
2023-09-17T00:29:39.258Z,89.47
2023-09-17T00:30:39.311Z,89.57
2023-09-17T00:31:39.336Z,89.81
2023-09-17T00:32:39.255Z,89.91
2023-09-17T00:33:39.229Z,89.91
2023-09-17T00:34:39.308Z,90.01
2023-09-17T00:35:39.220Z,89.81
2023-09-17T00:36:39.228Z,89.91
2023-09-17T00:37:39.183Z,89.91
2023-09-17T00:38:39.193Z,89.81
2023-09-17T00:39:39.177Z,89.91
2023-09-17T00:40:39.179Z,89.31
2023-09-17T00:41:39.168Z,89.21
2023-09-17T00:42:39.124Z,89.01
2023-09-17T00:43:39.146Z,88.81
2023-09-17T00:44:39.127Z,88.81
2023-09-17T00:45:39.137Z,89.11
2023-09-17T00:46:39.187Z,89.11
2023-09-17T00:47:39.100Z,88.90
2023-09-17T00:48:39.074Z,89.01
2023-09-17T00:49:39.080Z,88.90
2023-09-17T00:50:40.570Z,89.11
2023-09-17T00:51:39.045Z,89.01
2023-09-17T00:52:39.094Z,88.70
2023-09-17T00:53:39.012Z,88.60
2023-09-17T00:54:38.996Z,88.70
2023-09-17T00:55:39.072Z,88.70
2023-09-17T00:56:38.978Z,88.50
2023-09-17T00:57:38.995Z,88.50
2023-09-17T00:58:39.018Z,88.30
2023-09-17T00:59:38.970Z,88.40
2023-09-17T01:00:38.937Z,88.40
2023-09-17T01:01:39.002Z,88.30
2023-09-17T01:02:39.017Z,88.20
2023-09-17T01:03:39.012Z,88.20
2023-09-17T01:04:38.959Z,88.40
2023-09-17T01:05:38.891Z,88.30
2023-09-17T01:06:38.895Z,88.10
2023-09-17T01:07:39.048Z,87.80
2023-09-17T01:08:38.942Z,87.90
2023-09-17T01:09:38.858Z,87.80
2023-09-17T01:10:38.908Z,87.85
2023-09-17T01:11:38.823Z,88.20
2023-09-17T01:12:38.809Z,88.10
2023-09-17T01:13:38.904Z,88.10
2023-09-17T01:14:38.793Z,88.30
2023-09-17T01:15:38.924Z,88.60
2023-09-17T01:16:38.880Z,88.81
2023-09-17T01:17:38.810Z,89.01
2023-09-17T01:18:38.798Z,89.01
2023-09-17T01:19:38.782Z,89.21
2023-09-17T01:20:38.729Z,89.11
2023-09-17T01:21:38.732Z,89.41
2023-09-17T01:22:38.749Z,89.61
2023-09-17T01:23:38.717Z,89.21
2023-09-17T01:24:38.718Z,89.21
2023-09-17T01:25:38.718Z,89.11
2023-09-17T01:26:38.673Z,88.60
2023-09-17T01:27:38.685Z,88.16
2023-09-17T01:28:38.727Z,87.96
2023-09-17T01:29:38.664Z,87.85
2023-09-17T01:30:38.630Z,87.85
2023-09-17T01:31:38.676Z,88.16
2023-09-17T01:32:38.644Z,88.06
2023-09-17T01:33:38.711Z,88.16
2023-09-17T01:34:38.794Z,87.85
2023-09-17T01:35:38.592Z,87.76
2023-09-17T01:36:38.577Z,87.96
2023-09-17T01:37:38.621Z,87.85
2023-09-17T01:38:38.563Z,87.45
2023-09-17T01:39:38.612Z,87.15
2023-09-17T01:40:38.605Z,87.45
2023-09-17T01:41:38.527Z,87.35
2023-09-17T01:42:38.500Z,87.35
2023-09-17T01:43:38.564Z,87.25
2023-09-17T01:44:38.506Z,87.35
2023-09-17T01:45:38.495Z,87.96
2023-09-17T01:46:38.482Z,87.85
2023-09-17T01:47:38.489Z,88.06
2023-09-17T01:48:38.444Z,87.96
2023-09-17T01:49:38.469Z,88.26
2023-09-17T01:50:38.432Z,88.66
2023-09-17T01:51:38.419Z,88.16
2023-09-17T01:52:38.424Z,88.46
2023-09-17T01:53:38.389Z,88.86
2023-09-17T01:54:38.376Z,88.86
2023-09-17T01:55:38.472Z,88.86
2023-09-17T01:56:38.381Z,89.17
2023-09-17T01:57:38.356Z,89.17
2023-09-17T01:58:38.369Z,89.06
2023-09-17T01:59:38.325Z,89.47
2023-09-17T02:00:38.334Z,89.77
2023-09-17T02:01:38.375Z,89.47
2023-09-17T02:02:38.392Z,89.26
2023-09-17T02:03:38.372Z,89.26
2023-09-17T02:04:38.342Z,89.57
2023-09-17T02:05:38.279Z,89.37
2023-09-17T02:06:38.283Z,89.57
2023-09-17T02:07:38.262Z,89.47
2023-09-17T02:08:38.234Z,88.36
2023-09-17T02:09:38.219Z,88.36
2023-09-17T02:10:38.255Z,88.36
2023-09-17T02:11:38.224Z,88.46
2023-09-17T02:12:38.210Z,88.66
2023-09-17T02:13:38.215Z,88.46
2023-09-17T02:14:38.180Z,87.85
2023-09-17T02:15:38.181Z,88.16
2023-09-17T02:16:38.148Z,88.26
2023-09-17T02:17:38.173Z,88.36
2023-09-17T02:18:38.131Z,88.86
2023-09-17T02:19:38.189Z,88.81
2023-09-17T02:20:38.094Z,88.70
2023-09-17T02:21:38.086Z,89.01
2023-09-17T02:22:38.130Z,88.90
2023-09-17T02:23:38.061Z,88.81
2023-09-17T02:24:38.073Z,89.11
2023-09-17T02:25:38.097Z,89.71
2023-09-17T02:26:38.039Z,89.41
2023-09-17T02:27:38.032Z,89.41
2023-09-17T02:28:38.034Z,89.51
2023-09-17T02:29:38.008Z,89.01
2023-09-17T02:30:37.993Z,89.11
2023-09-17T02:31:38.024Z,88.90
2023-09-17T02:32:38.003Z,88.81
2023-09-17T02:33:37.959Z,88.60
2023-09-17T02:34:38.073Z,89.01
2023-09-17T02:35:37.968Z,88.70
2023-09-17T02:36:37.912Z,88.70
2023-09-17T02:37:37.916Z,88.81
2023-09-17T02:38:37.959Z,88.81
2023-09-17T02:39:37.889Z,88.90
2023-09-17T02:40:37.975Z,89.31
2023-09-17T02:41:37.909Z,89.81
2023-09-17T02:42:37.862Z,90.01
2023-09-17T02:43:38.014Z,90.22
2023-09-17T02:44:37.863Z,90.72
2023-09-17T02:45:37.824Z,90.92
2023-09-17T02:46:37.918Z,91.53
2023-09-17T02:47:37.873Z,91.73
2023-09-17T02:48:37.825Z,91.83
2023-09-17T02:49:37.876Z,91.63
2023-09-17T02:50:37.773Z,91.33
2023-09-17T02:51:37.867Z,91.63
2023-09-17T02:52:37.805Z,91.73
2023-09-17T02:53:37.778Z,91.53
2023-09-17T02:54:37.795Z,91.73
2023-09-17T02:55:37.753Z,91.83
2023-09-17T02:56:37.781Z,91.53
2023-09-17T02:57:37.708Z,91.63
2023-09-17T02:58:37.727Z,91.63
2023-09-17T02:59:37.688Z,91.63
2023-09-17T03:00:39.789Z,91.22
2023-09-17T03:01:37.678Z,90.92
2023-09-17T03:02:37.754Z,90.92
2023-09-17T03:03:37.699Z,91.22
2023-09-17T03:04:37.683Z,91.13
2023-09-17T03:05:37.616Z,91.22
2023-09-17T03:06:37.638Z,91.22
2023-09-17T03:07:37.617Z,91.13
2023-09-17T03:08:37.646Z,91.13
2023-09-17T03:09:37.628Z,91.33
2023-09-17T03:10:37.606Z,91.63
2023-09-17T03:11:37.575Z,91.33
2023-09-17T03:12:37.562Z,91.63
2023-09-17T03:13:37.561Z,91.63
2023-09-17T03:14:37.541Z,91.83
2023-09-17T03:15:37.519Z,92.13
2023-09-17T03:16:37.605Z,92.23
2023-09-17T03:17:37.604Z,91.67
2023-09-17T03:18:37.488Z,91.77
2023-09-17T03:19:37.501Z,91.97
2023-09-17T03:20:37.461Z,92.27
2023-09-17T03:21:37.470Z,92.58
2023-09-17T03:22:37.562Z,92.78
2023-09-17T03:23:37.425Z,92.78
2023-09-17T03:24:39.311Z,92.78
2023-09-17T03:25:37.477Z,92.88
2023-09-17T03:26:37.421Z,93.18
2023-09-17T03:27:37.395Z,93.18
2023-09-17T03:28:37.398Z,93.38
2023-09-17T03:29:37.386Z,93.29
2023-09-17T03:30:37.437Z,93.18
2023-09-17T03:31:37.408Z,93.38
2023-09-17T03:32:43.619Z,93.38
2023-09-17T03:33:37.371Z,93.49
2023-09-17T03:34:37.343Z,93.59
2023-09-17T03:35:37.325Z,93.49
2023-09-17T03:36:37.284Z,93.29
2023-09-17T03:37:37.365Z,93.38
2023-09-17T03:38:37.277Z,93.29
2023-09-17T03:39:37.272Z,93.38
2023-09-17T03:40:37.259Z,93.79
2023-09-17T03:41:37.238Z,93.23
2023-09-17T03:42:37.250Z,93.38
2023-09-17T03:43:37.252Z,93.53
2023-09-17T03:44:37.216Z,93.53
2023-09-17T03:45:37.211Z,93.73
2023-09-17T03:46:37.297Z,93.53
2023-09-17T03:47:37.268Z,93.13
2023-09-17T03:48:37.169Z,93.33
2023-09-17T03:49:37.189Z,93.43
2023-09-17T03:50:37.154Z,93.02
2023-09-17T03:51:37.146Z,93.02
2023-09-17T03:52:37.170Z,92.93
2023-09-17T03:53:37.154Z,93.02
2023-09-17T03:54:37.116Z,92.52
2023-09-17T03:55:37.133Z,92.02
2023-09-17T03:56:37.091Z,91.97
2023-09-17T03:57:37.087Z,91.97
2023-09-17T03:58:37.120Z,91.87
2023-09-17T03:59:37.058Z,91.87
2023-09-17T04:00:37.032Z,91.77
2023-09-17T04:01:37.112Z,91.37
2023-09-17T04:02:37.202Z,91.27
2023-09-17T04:03:37.069Z,91.27
2023-09-17T04:04:37.020Z,91.17
2023-09-17T04:05:36.990Z,91.27
2023-09-17T04:06:36.973Z,90.77
2023-09-17T04:07:36.996Z,90.97
2023-09-17T04:08:36.943Z,90.97
2023-09-17T04:09:36.961Z,90.81
2023-09-17T04:10:36.997Z,90.81
2023-09-17T04:11:36.913Z,90.91
2023-09-17T04:12:36.923Z,91.21
2023-09-17T04:13:36.926Z,91.31
2023-09-17T04:14:36.928Z,91.11
2023-09-17T04:15:36.884Z,91.11
2023-09-17T04:16:36.993Z,91.21
2023-09-17T04:17:36.903Z,90.91
2023-09-17T04:18:36.866Z,91.21
2023-09-17T04:19:36.855Z,91.11
2023-09-17T04:20:36.863Z,91.41
2023-09-17T04:21:36.816Z,91.41
2023-09-17T04:22:36.859Z,91.61
2023-09-17T04:23:36.794Z,91.51
2023-09-17T04:24:37.117Z,91.61
2023-09-17T04:25:36.832Z,91.41
2023-09-17T04:26:36.766Z,91.82
2023-09-17T04:27:36.738Z,91.82
2023-09-17T04:28:36.804Z,92.12
2023-09-17T04:29:36.739Z,91.66
2023-09-17T04:30:36.741Z,91.76
2023-09-17T04:31:36.815Z,92.12
2023-09-17T04:32:36.844Z,92.02
2023-09-17T04:33:36.686Z,92.46
2023-09-17T04:34:36.699Z,92.06
2023-09-17T04:35:36.695Z,92.57
2023-09-17T04:36:36.672Z,92.36
2023-09-17T04:37:36.721Z,92.46
2023-09-17T04:38:36.645Z,92.36
2023-09-17T04:39:36.671Z,92.86
2023-09-17T04:40:36.773Z,93.17
2023-09-17T04:41:36.607Z,93.68
2023-09-17T04:42:36.607Z,93.77
2023-09-17T04:43:36.645Z,94.28
2023-09-17T04:44:36.600Z,94.48
2023-09-17T04:45:36.976Z,94.38
2023-09-17T04:46:36.682Z,94.68
2023-09-17T04:47:36.550Z,94.48
2023-09-17T04:48:36.544Z,94.89
2023-09-17T04:49:36.670Z,95.39
2023-09-17T04:50:36.522Z,95.59
2023-09-17T04:51:36.524Z,95.59
2023-09-17T04:52:36.498Z,95.90
2023-09-17T04:53:36.499Z,95.19
2023-09-17T04:54:36.483Z,95.19
2023-09-17T04:55:36.474Z,96.00
2023-09-17T04:56:36.432Z,95.59
2023-09-17T04:57:36.417Z,95.09
2023-09-17T04:58:36.465Z,95.19
2023-09-17T04:59:36.376Z,95.59
2023-09-17T05:00:36.366Z,95.39
2023-09-17T05:01:36.434Z,94.99
2023-09-17T05:02:36.384Z,95.29
2023-09-17T05:03:36.443Z,95.59
2023-09-17T05:04:36.357Z,96.10
2023-09-17T05:05:36.315Z,95.90
2023-09-17T05:06:36.300Z,95.09
2023-09-17T05:07:36.319Z,94.99
2023-09-17T05:08:36.291Z,95.49
2023-09-17T05:09:36.261Z,95.49
2023-09-17T05:10:36.347Z,95.09
2023-09-17T05:11:36.251Z,95.19
2023-09-17T05:12:36.262Z,95.49
2023-09-17T05:13:36.255Z,94.79
2023-09-17T05:14:36.218Z,95.29
2023-09-17T05:15:36.248Z,96.00
2023-09-17T05:16:36.288Z,96.30
2023-09-17T05:17:36.218Z,96.10
2023-09-17T05:18:36.198Z,96.30
2023-09-17T05:19:36.176Z,96.40
2023-09-17T05:20:36.154Z,96.60
2023-09-17T05:21:36.145Z,96.20
2023-09-17T05:22:36.459Z,96.30
2023-09-17T05:23:36.121Z,96.70
2023-09-17T05:24:36.115Z,97.31
2023-09-17T05:25:36.170Z,97.21
2023-09-17T05:26:36.107Z,96.91
2023-09-17T05:27:36.138Z,97.01
2023-09-17T05:28:36.141Z,97.11
2023-09-17T05:29:36.115Z,97.21
2023-09-17T05:30:36.104Z,97.41
2023-09-17T05:31:36.091Z,97.61
2023-09-17T05:32:36.131Z,97.41
2023-09-17T05:33:36.011Z,97.21
2023-09-17T05:34:36.157Z,97.41
2023-09-17T05:35:36.035Z,97.51
2023-09-17T05:36:36.034Z,97.51
2023-09-17T05:37:36.045Z,97.21
2023-09-17T05:38:35.990Z,97.41
2023-09-17T05:39:35.994Z,97.21
2023-09-17T05:40:36.033Z,97.21
2023-09-17T05:41:35.938Z,97.31
2023-09-17T05:42:35.921Z,97.61
2023-09-17T05:43:35.951Z,97.71
2023-09-17T05:44:35.942Z,97.81
2023-09-17T05:45:35.921Z,97.71
2023-09-17T05:46:35.893Z,97.61
2023-09-17T05:47:36.161Z,96.91
2023-09-17T05:48:35.874Z,97.11
2023-09-17T05:49:35.987Z,97.21
2023-09-17T05:50:35.898Z,97.11
2023-09-17T05:51:35.855Z,97.31
2023-09-17T05:52:35.944Z,97.21
2023-09-17T05:53:35.825Z,97.51
2023-09-17T05:54:35.834Z,97.41
2023-09-17T05:55:35.823Z,97.51
2023-09-17T05:56:35.785Z,98.22
2023-09-17T05:57:35.800Z,98.22
2023-09-17T05:58:35.797Z,97.71
2023-09-17T05:59:35.737Z,97.61
2023-09-17T06:00:35.764Z,97.01
2023-09-17T06:01:35.782Z,97.31
2023-09-17T06:02:35.722Z,97.21
2023-09-17T06:03:35.770Z,97.11
2023-09-17T06:04:35.719Z,97.21
2023-09-17T06:05:35.709Z,96.70
2023-09-17T06:06:35.673Z,96.56
2023-09-17T06:07:35.690Z,96.30
2023-09-17T06:08:35.657Z,96.66
2023-09-17T06:09:35.648Z,96.86
2023-09-17T06:10:35.677Z,96.86
2023-09-17T06:11:35.633Z,96.36
2023-09-17T06:12:35.629Z,96.36
2023-09-17T06:13:35.630Z,96.45
2023-09-17T06:14:35.638Z,96.25
2023-09-17T06:15:35.673Z,96.25
2023-09-17T06:16:46.537Z,96.86
2023-09-17T06:17:35.623Z,96.66
2023-09-17T06:18:35.568Z,96.15
2023-09-17T06:19:35.572Z,96.15
2023-09-17T06:20:35.555Z,95.90
2023-09-17T06:21:35.535Z,95.90
2023-09-17T06:22:35.576Z,96.01
2023-09-17T06:23:35.487Z,96.41
2023-09-17T06:24:35.497Z,96.31
2023-09-17T06:25:35.536Z,96.61
2023-09-17T06:26:35.505Z,96.51
2023-09-17T06:27:35.456Z,96.31
2023-09-17T06:28:35.523Z,96.41
2023-09-17T06:29:35.430Z,96.31
2023-09-17T06:30:35.429Z,96.21
2023-09-17T06:31:35.693Z,96.41
2023-09-17T06:32:35.432Z,96.71
2023-09-17T06:33:35.400Z,96.31
2023-09-17T06:34:35.383Z,96.21
2023-09-17T06:35:35.462Z,96.71
2023-09-17T06:36:35.420Z,96.31
2023-09-17T06:37:35.369Z,96.21
2023-09-17T06:38:35.366Z,96.31
2023-09-17T06:39:35.349Z,96.06
2023-09-17T06:40:35.333Z,96.26
2023-09-17T06:41:38.180Z,96.56
2023-09-17T06:42:35.348Z,96.87
2023-09-17T06:43:35.297Z,96.77
2023-09-17T06:44:35.269Z,96.26
2023-09-17T06:45:35.312Z,96.06
2023-09-17T06:46:35.402Z,96.26
2023-09-17T06:47:35.365Z,96.36
2023-09-17T06:48:35.289Z,96.36
2023-09-17T06:49:35.252Z,96.26
2023-09-17T06:50:35.236Z,95.92
2023-09-17T06:51:35.189Z,95.81
2023-09-17T06:52:35.224Z,96.12
2023-09-17T06:53:35.202Z,96.42
2023-09-17T06:54:35.165Z,96.12
2023-09-17T06:55:35.333Z,95.81
2023-09-17T06:56:35.162Z,96.12
2023-09-17T06:57:35.916Z,95.97
2023-09-17T06:58:35.146Z,95.57
2023-09-17T06:59:35.132Z,95.27
2023-09-17T07:00:35.103Z,94.87
2023-09-17T07:01:35.305Z,94.42
2023-09-17T07:02:35.179Z,94.01
2023-09-17T07:03:35.124Z,93.81
2023-09-17T07:04:35.151Z,93.71
2023-09-17T07:05:35.096Z,93.37
2023-09-17T07:06:35.038Z,93.57
2023-09-17T07:07:35.029Z,94.07
2023-09-17T07:08:35.029Z,93.97
2023-09-17T07:09:35.027Z,92.92
2023-09-17T07:10:35.062Z,92.92
2023-09-17T07:11:35.010Z,92.11
2023-09-17T07:12:34.984Z,92.61
2023-09-17T07:13:35.041Z,93.38
2023-09-17T07:14:34.945Z,92.77
2023-09-17T07:15:34.952Z,92.77
2023-09-17T07:16:34.993Z,92.53
2023-09-17T07:17:35.183Z,91.63
2023-09-17T07:18:35.212Z,91.93
2023-09-17T07:19:35.186Z,92.73
2023-09-17T07:20:35.001Z,91.77
2023-09-17T07:21:35.030Z,93.18
2023-09-17T07:22:34.893Z,94.68
2023-09-17T07:23:34.872Z,94.18
2023-09-17T07:24:34.853Z,94.83
2023-09-17T07:25:34.856Z,94.53
2023-09-17T07:26:34.823Z,95.43
2023-09-17T07:27:34.848Z,95.94
2023-09-17T07:28:34.834Z,96.04
2023-09-17T07:29:34.799Z,96.44
2023-09-17T07:30:34.788Z,96.04
2023-09-17T07:31:34.864Z,96.14
2023-09-17T07:32:34.862Z,96.30
2023-09-17T07:33:34.737Z,95.99
2023-09-17T07:34:34.783Z,95.79
2023-09-17T07:35:34.725Z,95.99
2023-09-17T07:36:34.770Z,95.99
2023-09-17T07:37:50.050Z,96.09
2023-09-17T07:38:34.774Z,96.19
2023-09-17T07:39:34.697Z,96.35
2023-09-17T07:40:34.836Z,96.45
2023-09-17T07:41:34.673Z,95.95
2023-09-17T07:42:34.678Z,96.15
2023-09-17T07:43:34.698Z,96.15
2023-09-17T07:44:34.646Z,95.54
2023-09-17T07:45:34.625Z,95.30
2023-09-17T07:46:34.677Z,96.10
2023-09-17T07:47:34.677Z,96.20
2023-09-17T07:48:34.600Z,95.86
2023-09-17T07:49:34.691Z,95.15
2023-09-17T07:50:34.610Z,95.36
2023-09-17T07:51:34.550Z,95.45
2023-09-17T07:52:34.618Z,95.55
2023-09-17T07:53:34.541Z,95.45
2023-09-17T07:54:34.531Z,95.36
2023-09-17T07:55:34.545Z,95.05
2023-09-17T07:56:34.522Z,95.15
2023-09-17T07:57:34.534Z,94.95
2023-09-17T07:58:34.516Z,95.31
2023-09-17T07:59:34.509Z,95.91
2023-09-17T08:00:34.485Z,95.31
2023-09-17T08:01:34.585Z,95.10
2023-09-17T08:02:34.641Z,94.60
2023-09-17T08:03:34.523Z,94.31
2023-09-17T08:04:34.523Z,94.96
2023-09-17T08:05:34.420Z,94.06
2023-09-17T08:06:34.456Z,93.66
2023-09-17T08:07:34.459Z,94.31
2023-09-17T08:08:34.457Z,93.81
2023-09-17T08:09:34.443Z,93.57
2023-09-17T08:10:34.507Z,93.27
2023-09-17T08:11:34.444Z,92.57
2023-09-17T08:12:34.348Z,91.86
2023-09-17T08:13:34.375Z,92.36
2023-09-17T08:14:34.321Z,93.23
2023-09-17T08:15:34.345Z,93.52
2023-09-17T08:16:34.347Z,92.32
2023-09-17T08:17:34.343Z,90.98
2023-09-17T08:18:34.291Z,91.08
2023-09-17T08:19:34.293Z,91.58
2023-09-17T08:20:34.284Z,89.78
2023-09-17T08:21:34.258Z,89.83
2023-09-17T08:22:34.273Z,90.44
2023-09-17T08:23:34.249Z,89.29
2023-09-17T08:24:34.211Z,88.59
2023-09-17T08:25:34.290Z,88.09
2023-09-17T08:26:34.252Z,88.99
2023-09-17T08:27:34.185Z,88.69
2023-09-17T08:28:34.190Z,89.39
2023-09-17T08:29:34.177Z,89.05
2023-09-17T08:30:34.197Z,88.75
2023-09-17T08:31:34.190Z,87.15
2023-09-17T08:32:34.144Z,87.65
2023-09-17T08:33:34.120Z,87.65
2023-09-17T08:34:34.145Z,88.59
2023-09-17T08:35:34.187Z,88.39
2023-09-17T08:36:34.115Z,87.39
2023-09-17T08:37:34.093Z,88.45
2023-09-17T08:38:34.058Z,87.35
2023-09-17T08:39:34.067Z,86.95
2023-09-17T08:40:34.145Z,87.15
2023-09-17T08:41:34.041Z,86.91
2023-09-17T08:42:34.030Z,86.81
2023-09-17T08:43:34.027Z,85.07
2023-09-17T08:44:34.008Z,84.83
2023-09-17T08:45:34.001Z,84.39
2023-09-17T08:46:34.036Z,83.49
2023-09-17T08:47:34.121Z,83.35
2023-09-17T08:48:33.945Z,82.56
2023-09-17T08:49:34.012Z,82.26
2023-09-17T08:50:33.938Z,81.46
2023-09-17T08:51:33.938Z,82.56
2023-09-17T08:52:33.966Z,80.80
2023-09-17T08:53:33.931Z,82.79
2023-09-17T08:54:33.910Z,82.50
2023-09-17T08:55:34.180Z,83.00
2023-09-17T08:56:33.879Z,83.85
2023-09-17T08:57:33.898Z,83.25
2023-09-17T08:58:33.983Z,82.86
2023-09-17T08:59:33.857Z,82.26
2023-09-17T09:00:33.840Z,83.41
2023-09-17T09:01:33.866Z,82.06
2023-09-17T09:02:33.989Z,82.12
2023-09-17T09:03:33.869Z,81.92
2023-09-17T09:04:33.845Z,81.02
2023-09-17T09:05:33.794Z,82.26
2023-09-17T09:06:33.788Z,82.86
2023-09-17T09:07:33.843Z,82.45
2023-09-17T09:08:33.794Z,81.16
2023-09-17T09:09:33.752Z,82.86
2023-09-17T09:10:33.791Z,83.55
2023-09-17T09:11:33.748Z,83.05
2023-09-17T09:12:33.712Z,82.15
2023-09-17T09:13:33.754Z,82.26
2023-09-17T09:14:33.718Z,81.99
2023-09-17T09:15:33.688Z,82.79
2023-09-17T09:16:33.775Z,82.56
2023-09-17T09:17:33.742Z,82.06
2023-09-17T09:18:33.687Z,81.92
2023-09-17T09:19:33.676Z,79.99
2023-09-17T09:20:33.632Z,80.78
2023-09-17T09:21:33.655Z,79.35
2023-09-17T09:22:33.639Z,79.61
2023-09-17T09:23:33.630Z,78.95
2023-09-17T09:24:33.582Z,78.65
2023-09-17T09:25:33.599Z,79.94
2023-09-17T09:26:33.567Z,78.31
2023-09-17T09:27:33.562Z,78.52
2023-09-17T09:28:33.604Z,78.22
2023-09-17T09:29:33.534Z,79.31
2023-09-17T09:30:33.554Z,78.78
2023-09-17T09:31:33.589Z,78.78
2023-09-17T09:32:33.647Z,77.98
2023-09-17T09:33:33.528Z,77.98
2023-09-17T09:34:33.541Z,76.98
2023-09-17T09:35:33.487Z,77.42
2023-09-17T09:36:33.472Z,77.82
2023-09-17T09:37:33.542Z,79.01
2023-09-17T09:38:33.439Z,77.62
2023-09-17T09:39:33.465Z,78.12
2023-09-17T09:40:33.441Z,77.38
2023-09-17T09:41:33.437Z,78.38
2023-09-17T09:42:33.404Z,77.55
2023-09-17T09:43:33.446Z,77.15
2023-09-17T09:44:33.417Z,78.70
2023-09-17T09:45:33.393Z,76.57
2023-09-17T09:46:33.396Z,74.16
2023-09-17T09:47:33.423Z,73.76
2023-09-17T09:48:33.340Z,73.96
2023-09-17T09:49:33.352Z,73.46
2023-09-17T09:50:33.319Z,74.65
2023-09-17T09:51:33.356Z,73.56
2023-09-17T09:52:33.312Z,73.96
2023-09-17T09:53:33.311Z,73.33
2023-09-17T09:54:33.282Z,73.29
2023-09-17T09:55:33.296Z,73.49
2023-09-17T09:56:33.310Z,73.23
2023-09-17T09:57:33.255Z,72.76
2023-09-17T09:58:33.274Z,72.30
2023-09-17T09:59:33.243Z,72.30
2023-09-17T10:00:33.210Z,73.03
2023-09-17T10:01:33.304Z,73.25
2023-09-17T10:02:33.211Z,71.54
2023-09-17T10:03:33.192Z,72.30
2023-09-17T10:04:33.288Z,70.18
2023-09-17T10:05:33.168Z,70.81
2023-09-17T10:06:33.167Z,69.79
2023-09-17T10:07:33.172Z,68.07
2023-09-17T10:08:33.138Z,67.44
2023-09-17T10:09:33.134Z,69.56
2023-09-17T10:10:33.162Z,72.14
2023-09-17T10:11:33.249Z,73.86
2023-09-17T10:12:33.095Z,74.69
2023-09-17T10:13:33.108Z,75.72
2023-09-17T10:14:33.140Z,75.48
2023-09-17T10:15:33.121Z,76.72
2023-09-17T10:16:33.111Z,76.91
2023-09-17T10:17:33.102Z,77.31
2023-09-17T10:18:33.027Z,78.11
2023-09-17T10:19:33.060Z,76.61
2023-09-17T10:20:33.040Z,74.78
2023-09-17T10:21:33.010Z,74.35
2023-09-17T10:22:33.005Z,71.01
2023-09-17T10:23:32.999Z,69.76
2023-09-17T10:24:32.982Z,70.05
2023-09-17T10:25:33.029Z,71.11
2023-09-17T10:26:32.943Z,68.99
2023-09-17T10:27:32.946Z,68.01
2023-09-17T10:28:32.973Z,67.44
2023-09-17T10:29:32.957Z,68.80
2023-09-17T10:30:32.942Z,70.51
2023-09-17T10:31:33.018Z,71.01
2023-09-17T10:32:34.063Z,68.37
2023-09-17T10:33:33.010Z,70.38
2023-09-17T10:34:32.935Z,69.69
2023-09-17T10:35:32.872Z,69.42
2023-09-17T10:36:32.862Z,67.48
2023-09-17T10:37:32.884Z,65.44
2023-09-17T10:38:32.874Z,65.83
2023-09-17T10:39:32.857Z,66.03
2023-09-17T10:40:32.840Z,66.29
2023-09-17T10:41:32.896Z,68.46
2023-09-17T10:42:32.847Z,68.90
2023-09-17T10:43:32.787Z,69.92
2023-09-17T10:44:32.759Z,69.79
2023-09-17T10:45:32.758Z,68.60
2023-09-17T10:46:32.816Z,68.93
2023-09-17T10:47:32.802Z,70.09
2023-09-17T10:48:32.710Z,71.28
2023-09-17T10:49:32.885Z,70.91
2023-09-17T10:50:32.735Z,68.50
2023-09-17T10:51:32.677Z,67.15
2023-09-17T10:52:32.688Z,64.84
2023-09-17T10:53:32.670Z,67.05
2023-09-17T10:54:32.650Z,66.85
2023-09-17T10:55:32.664Z,67.80
2023-09-17T10:56:32.641Z,69.13
2023-09-17T10:57:32.635Z,70.84
2023-09-17T10:58:32.645Z,70.22
2023-09-17T10:59:32.606Z,72.63
2023-09-17T11:00:33.636Z,73.03
2023-09-17T11:01:32.786Z,73.69
2023-09-17T11:02:32.726Z,69.62
2023-09-17T11:03:32.603Z,66.22
2023-09-17T11:04:32.577Z,67.41
2023-09-17T11:05:32.532Z,66.49
2023-09-17T11:06:32.550Z,68.30
2023-09-17T11:07:32.580Z,66.29
2023-09-17T11:08:32.505Z,68.01
2023-09-17T11:09:32.499Z,68.83
2023-09-17T11:10:33.145Z,70.21
2023-09-17T11:11:32.497Z,70.94
2023-09-17T11:12:32.462Z,70.18
2023-09-17T11:13:32.512Z,71.61
2023-09-17T11:14:32.451Z,72.44
2023-09-17T11:15:32.441Z,71.91
2023-09-17T11:16:32.552Z,68.70
2023-09-17T11:17:32.605Z,66.66
2023-09-17T11:18:35.663Z,64.62
2023-09-17T11:19:32.411Z,61.04
2023-09-17T11:20:32.384Z,60.31
2023-09-17T11:21:32.374Z,61.67
2023-09-17T11:22:32.389Z,59.72
2023-09-17T11:23:32.546Z,59.72
2023-09-17T11:24:32.339Z,60.88
2023-09-17T11:25:32.368Z,60.52
2023-09-17T11:26:32.330Z,61.29
2023-09-17T11:27:32.332Z,62.81
2023-09-17T11:28:32.337Z,63.07
2023-09-17T11:29:32.340Z,63.79
2023-09-17T11:30:32.382Z,65.01
2023-09-17T11:31:32.377Z,64.81
2023-09-17T11:32:32.318Z,64.28
2023-09-17T11:33:32.256Z,65.89
2023-09-17T11:34:32.312Z,66.42
2023-09-17T11:35:32.259Z,67.24
2023-09-17T11:36:32.235Z,68.86
2023-09-17T11:37:32.282Z,69.20
2023-09-17T11:38:32.197Z,68.66
2023-09-17T11:39:32.190Z,70.15
2023-09-17T11:40:32.201Z,70.51
2023-09-17T11:41:32.210Z,70.18
2023-09-17T11:42:32.161Z,71.14
2023-09-17T11:43:32.198Z,72.09
2023-09-17T11:44:32.184Z,70.42
2023-09-17T11:45:32.129Z,69.92
2023-09-17T11:46:32.238Z,68.96
2023-09-17T11:47:32.146Z,70.22
2023-09-17T11:48:34.387Z,70.25
2023-09-17T11:49:32.154Z,71.88
2023-09-17T11:50:32.087Z,72.07
2023-09-17T11:51:32.107Z,72.07
2023-09-17T11:52:32.079Z,73.03
2023-09-17T11:53:32.051Z,73.79
2023-09-17T11:54:32.035Z,72.56
2023-09-17T11:55:32.091Z,72.17
2023-09-17T11:56:32.032Z,69.98
2023-09-17T11:57:32.004Z,70.45
2023-09-17T11:58:32.014Z,70.05
2023-09-17T11:59:31.976Z,71.41
2023-09-17T12:00:31.987Z,69.02
2023-09-17T12:01:32.114Z,69.32
2023-09-17T12:02:32.042Z,68.99
2023-09-17T12:03:31.940Z,68.20
2023-09-17T12:04:32.177Z,66.09
2023-09-17T12:05:31.926Z,66.82
2023-09-17T12:06:31.922Z,64.42
2023-09-17T12:07:38.924Z,64.39
2023-09-17T12:08:31.897Z,64.58
2023-09-17T12:09:31.878Z,64.42
2023-09-17T12:10:31.884Z,66.88
2023-09-17T12:11:31.897Z,65.01
2023-09-17T12:12:31.828Z,63.99
2023-09-17T12:13:31.915Z,63.73
2023-09-17T12:14:31.824Z,61.80
2023-09-17T12:15:31.806Z,61.50
2023-09-17T12:16:31.999Z,61.76
2023-09-17T12:17:31.945Z,63.69
2023-09-17T12:18:31.797Z,60.91
2023-09-17T12:19:31.890Z,59.78
2023-09-17T12:20:31.823Z,57.66
2023-09-17T12:21:31.749Z,59.34
2023-09-17T12:22:31.763Z,60.61
2023-09-17T12:23:31.754Z,61.93
2023-09-17T12:24:31.739Z,63.04
2023-09-17T12:25:31.809Z,61.82
2023-09-17T12:26:31.712Z,62.77
2023-09-17T12:27:31.712Z,64.67
2023-09-17T12:28:31.764Z,64.78
2023-09-17T12:29:31.668Z,63.16
2023-09-17T12:30:31.688Z,62.91
2023-09-17T12:31:31.689Z,59.74
2023-09-17T12:32:31.879Z,57.36
2023-09-17T12:33:31.642Z,57.22
2023-09-17T12:34:31.629Z,58.36
2023-09-17T12:35:31.663Z,59.64
2023-09-17T12:36:31.617Z,57.12
2023-09-17T12:37:31.594Z,58.18
2023-09-17T12:38:31.582Z,55.93
2023-09-17T12:39:31.582Z,54.85
2023-09-17T12:40:31.565Z,56.83
2023-09-17T12:41:40.562Z,56.55
2023-09-17T12:42:31.561Z,56.24
2023-09-17T12:43:31.543Z,58.22
2023-09-17T12:44:31.528Z,61.26
2023-09-17T12:45:31.569Z,62.21
2023-09-17T12:46:31.530Z,59.99
2023-09-17T12:47:31.514Z,58.20
2023-09-17T12:48:31.487Z,56.65
2023-09-17T12:49:31.470Z,57.10
2023-09-17T12:50:31.476Z,59.64
2023-09-17T12:51:31.472Z,60.78
2023-09-17T12:52:31.487Z,59.08